sensor_id;sensor_type;location;lat;lon;timestamp;temperature;humidity
22813;DHT22;11573;51.334;3.244;2023-03-19T00:00:38;8.90;99.90
22813;DHT22;11573;51.334;3.244;2023-03-19T00:03:05;8.90;99.90
22813;DHT22;11573;51.334;3.244;2023-03-19T00:05:32;8.90;99.90
22813;DHT22;11573;51.334;3.244;2023-03-19T00:07:59;8.90;99.90
22813;DHT22;11573;51.334;3.244;2023-03-19T00:10:26;8.90;99.90
22813;DHT22;11573;51.334;3.244;2023-03-19T00:12:53;8.80;99.90
22813;DHT22;11573;51.334;3.244;2023-03-19T00:15:20;8.80;99.90
22813;DHT22;11573;51.334;3.244;2023-03-19T00:17:47;8.80;99.90
22813;DHT22;11573;51.334;3.244;2023-03-19T00:20:14;8.80;99.90
22813;DHT22;11573;51.334;3.244;2023-03-19T00:22:43;8.80;99.90
22813;DHT22;11573;51.334;3.244;2023-03-19T00:25:11;8.70;99.90
22813;DHT22;11573;51.334;3.244;2023-03-19T00:27:38;8.80;99.90
22813;DHT22;11573;51.334;3.244;2023-03-19T00:30:06;8.80;99.90
22813;DHT22;11573;51.334;3.244;2023-03-19T00:32:33;8.90;99.90
22813;DHT22;11573;51.334;3.244;2023-03-19T00:35:03;8.90;99.90
22813;DHT22;11573;51.334;3.244;2023-03-19T00:37:32;8.90;99.90
22813;DHT22;11573;51.334;3.244;2023-03-19T00:39:59;8.90;99.90
22813;DHT22;11573;51.334;3.244;2023-03-19T00:42:26;9.00;99.90
22813;DHT22;11573;51.334;3.244;2023-03-19T00:44:53;9.00;99.90
22813;DHT22;11573;51.334;3.244;2023-03-19T00:47:20;8.90;99.90
22813;DHT22;11573;51.334;3.244;2023-03-19T00:49:48;8.90;99.90
22813;DHT22;11573;51.334;3.244;2023-03-19T00:52:15;9.00;99.90
22813;DHT22;11573;51.334;3.244;2023-03-19T00:54:42;9.00;99.90
22813;DHT22;11573;51.334;3.244;2023-03-19T00:57:09;9.00;99.90
22813;DHT22;11573;51.334;3.244;2023-03-19T00:59:36;9.00;99.90
22813;DHT22;11573;51.334;3.244;2023-03-19T01:02:03;9.00;99.90
22813;DHT22;11573;51.334;3.244;2023-03-19T01:04:30;9.00;99.90
22813;DHT22;11573;51.334;3.244;2023-03-19T01:06:58;9.00;99.90
22813;DHT22;11573;51.334;3.244;2023-03-19T01:09:25;8.90;99.90
22813;DHT22;11573;51.334;3.244;2023-03-19T01:11:52;9.00;99.90
22813;DHT22;11573;51.334;3.244;2023-03-19T01:14:19;9.00;99.90
22813;DHT22;11573;51.334;3.244;2023-03-19T01:16:46;9.00;99.90
22813;DHT22;11573;51.334;3.244;2023-03-19T01:19:14;9.00;99.90
22813;DHT22;11573;51.334;3.244;2023-03-19T01:21:42;8.90;99.90
22813;DHT22;11573;51.334;3.244;2023-03-19T01:24:16;8.70;99.90
22813;DHT22;11573;51.334;3.244;2023-03-19T01:26:47;8.70;99.90
22813;DHT22;11573;51.334;3.244;2023-03-19T01:29:34;8.70;99.90
22813;DHT22;11573;51.334;3.244;2023-03-19T01:32:12;8.60;99.90
22813;DHT22;11573;51.334;3.244;2023-03-19T01:35:11;8.60;99.90
22813;DHT22;11573;51.334;3.244;2023-03-19T01:37:38;8.70;99.90
22813;DHT22;11573;51.334;3.244;2023-03-19T01:40:07;8.60;99.90
22813;DHT22;11573;51.334;3.244;2023-03-19T01:42:53;8.70;99.90
22813;DHT22;11573;51.334;3.244;2023-03-19T01:45:44;8.60;99.90
22813;DHT22;11573;51.334;3.244;2023-03-19T01:48:50;8.60;99.90
22813;DHT22;11573;51.334;3.244;2023-03-19T01:51:23;8.60;99.90
22813;DHT22;11573;51.334;3.244;2023-03-19T01:54:11;8.70;99.90
22813;DHT22;11573;51.334;3.244;2023-03-19T01:57:03;8.70;99.90
22813;DHT22;11573;51.334;3.244;2023-03-19T01:59:54;8.70;99.90
22813;DHT22;11573;51.334;3.244;2023-03-19T02:02:41;8.60;99.90
22813;DHT22;11573;51.334;3.244;2023-03-19T02:05:26;8.60;99.90
22813;DHT22;11573;51.334;3.244;2023-03-19T02:08:02;8.60;99.90
22813;DHT22;11573;51.334;3.244;2023-03-19T02:10:31;8.60;99.90
22813;DHT22;11573;51.334;3.244;2023-03-19T02:12:58;8.60;99.90
22813;DHT22;11573;51.334;3.244;2023-03-19T02:15:25;8.60;99.90
22813;DHT22;11573;51.334;3.244;2023-03-19T02:17:52;8.70;99.90
22813;DHT22;11573;51.334;3.244;2023-03-19T02:20:33;8.60;99.90
22813;DHT22;11573;51.334;3.244;2023-03-19T02:23:20;8.60;99.90
22813;DHT22;11573;51.334;3.244;2023-03-19T02:26:10;8.70;99.90
22813;DHT22;11573;51.334;3.244;2023-03-19T02:28:41;8.60;99.90
22813;DHT22;11573;51.334;3.244;2023-03-19T02:31:12;8.60;99.90
22813;DHT22;11573;51.334;3.244;2023-03-19T02:33:39;8.70;99.90
22813;DHT22;11573;51.334;3.244;2023-03-19T02:36:11;8.70;99.90
22813;DHT22;11573;51.334;3.244;2023-03-19T02:38:42;8.70;99.90
22813;DHT22;11573;51.334;3.244;2023-03-19T02:41:10;8.50;99.90
22813;DHT22;11573;51.334;3.244;2023-03-19T02:43:39;8.70;99.90
22813;DHT22;11573;51.334;3.244;2023-03-19T02:46:11;8.60;99.90
22813;DHT22;11573;51.334;3.244;2023-03-19T02:48:39;8.70;99.90
22813;DHT22;11573;51.334;3.244;2023-03-19T02:51:07;8.70;99.90
22813;DHT22;11573;51.334;3.244;2023-03-19T02:53:35;8.70;99.90
22813;DHT22;11573;51.334;3.244;2023-03-19T02:56:02;8.70;99.90
22813;DHT22;11573;51.334;3.244;2023-03-19T02:58:29;8.60;99.90
22813;DHT22;11573;51.334;3.244;2023-03-19T03:00:56;8.50;99.90
22813;DHT22;11573;51.334;3.244;2023-03-19T03:03:23;8.60;99.90
22813;DHT22;11573;51.334;3.244;2023-03-19T03:05:50;8.50;99.90
22813;DHT22;11573;51.334;3.244;2023-03-19T03:08:17;8.60;99.90
22813;DHT22;11573;51.334;3.244;2023-03-19T03:10:44;8.60;99.90
22813;DHT22;11573;51.334;3.244;2023-03-19T03:13:11;8.50;99.90
22813;DHT22;11573;51.334;3.244;2023-03-19T03:15:39;8.50;99.90
22813;DHT22;11573;51.334;3.244;2023-03-19T03:18:06;8.60;99.90
22813;DHT22;11573;51.334;3.244;2023-03-19T03:20:33;8.70;99.90
22813;DHT22;11573;51.334;3.244;2023-03-19T03:23:00;8.70;99.90
22813;DHT22;11573;51.334;3.244;2023-03-19T03:25:28;8.70;99.90
22813;DHT22;11573;51.334;3.244;2023-03-19T03:27:56;8.90;99.90
22813;DHT22;11573;51.334;3.244;2023-03-19T03:30:23;8.80;99.90
22813;DHT22;11573;51.334;3.244;2023-03-19T03:32:50;8.80;99.90
22813;DHT22;11573;51.334;3.244;2023-03-19T03:35:17;8.80;99.90
22813;DHT22;11573;51.334;3.244;2023-03-19T03:37:49;8.80;99.90
22813;DHT22;11573;51.334;3.244;2023-03-19T03:40:16;8.70;99.90
22813;DHT22;11573;51.334;3.244;2023-03-19T03:42:44;8.70;99.90
22813;DHT22;11573;51.334;3.244;2023-03-19T03:45:12;8.70;99.90
22813;DHT22;11573;51.334;3.244;2023-03-19T03:47:43;8.80;99.90
22813;DHT22;11573;51.334;3.244;2023-03-19T03:50:10;8.80;99.90
22813;DHT22;11573;51.334;3.244;2023-03-19T03:52:39;8.80;99.90
22813;DHT22;11573;51.334;3.244;2023-03-19T03:55:07;8.80;99.90
22813;DHT22;11573;51.334;3.244;2023-03-19T03:57:34;8.90;99.90
22813;DHT22;11573;51.334;3.244;2023-03-19T04:00:03;8.90;99.90
22813;DHT22;11573;51.334;3.244;2023-03-19T04:02:38;8.90;99.90
22813;DHT22;11573;51.334;3.244;2023-03-19T04:05:07;9.00;99.90
22813;DHT22;11573;51.334;3.244;2023-03-19T04:07:36;8.90;99.90
22813;DHT22;11573;51.334;3.244;2023-03-19T04:10:04;9.00;99.90
22813;DHT22;11573;51.334;3.244;2023-03-19T04:12:31;9.00;99.90
22813;DHT22;11573;51.334;3.244;2023-03-19T04:14:58;9.00;99.90
22813;DHT22;11573;51.334;3.244;2023-03-19T04:17:25;9.00;99.90
22813;DHT22;11573;51.334;3.244;2023-03-19T04:19:52;9.00;99.90
22813;DHT22;11573;51.334;3.244;2023-03-19T04:22:19;8.90;99.90
22813;DHT22;11573;51.334;3.244;2023-03-19T04:24:46;8.90;99.90
22813;DHT22;11573;51.334;3.244;2023-03-19T04:27:13;8.90;99.90
22813;DHT22;11573;51.334;3.244;2023-03-19T04:29:40;9.00;99.90
22813;DHT22;11573;51.334;3.244;2023-03-19T04:32:08;8.90;99.90
22813;DHT22;11573;51.334;3.244;2023-03-19T04:34:35;8.90;99.90
22813;DHT22;11573;51.334;3.244;2023-03-19T04:37:03;8.90;99.90
22813;DHT22;11573;51.334;3.244;2023-03-19T04:39:32;8.90;99.90
22813;DHT22;11573;51.334;3.244;2023-03-19T04:41:59;9.00;99.90
22813;DHT22;11573;51.334;3.244;2023-03-19T04:44:33;8.90;99.90
22813;DHT22;11573;51.334;3.244;2023-03-19T04:47:01;9.00;99.90
22813;DHT22;11573;51.334;3.244;2023-03-19T04:49:39;9.00;99.90
22813;DHT22;11573;51.334;3.244;2023-03-19T04:52:07;9.00;99.90
22813;DHT22;11573;51.334;3.244;2023-03-19T04:54:34;9.00;99.90
22813;DHT22;11573;51.334;3.244;2023-03-19T04:57:02;8.90;99.90
22813;DHT22;11573;51.334;3.244;2023-03-19T04:59:33;8.90;99.90
22813;DHT22;11573;51.334;3.244;2023-03-19T05:02:01;8.90;99.90
22813;DHT22;11573;51.334;3.244;2023-03-19T05:04:29;8.80;99.90
22813;DHT22;11573;51.334;3.244;2023-03-19T05:07:02;8.80;99.90
22813;DHT22;11573;51.334;3.244;2023-03-19T05:09:29;8.80;99.90
22813;DHT22;11573;51.334;3.244;2023-03-19T05:11:56;8.80;99.90
22813;DHT22;11573;51.334;3.244;2023-03-19T05:14:24;8.80;99.90
22813;DHT22;11573;51.334;3.244;2023-03-19T05:17:06;8.80;99.90
22813;DHT22;11573;51.334;3.244;2023-03-19T05:19:49;8.80;99.90
22813;DHT22;11573;51.334;3.244;2023-03-19T05:22:18;8.80;99.90
22813;DHT22;11573;51.334;3.244;2023-03-19T05:24:45;8.90;99.90
22813;DHT22;11573;51.334;3.244;2023-03-19T05:27:13;8.80;99.90
22813;DHT22;11573;51.334;3.244;2023-03-19T05:29:46;8.90;99.90
22813;DHT22;11573;51.334;3.244;2023-03-19T05:32:23;8.90;99.90
22813;DHT22;11573;51.334;3.244;2023-03-19T05:34:51;8.90;99.90
22813;DHT22;11573;51.334;3.244;2023-03-19T05:37:18;8.90;99.90
22813;DHT22;11573;51.334;3.244;2023-03-19T05:39:53;8.90;99.90
22813;DHT22;11573;51.334;3.244;2023-03-19T05:42:21;8.90;99.90
22813;DHT22;11573;51.334;3.244;2023-03-19T05:44:48;8.90;99.90
22813;DHT22;11573;51.334;3.244;2023-03-19T05:47:24;8.90;99.90
22813;DHT22;11573;51.334;3.244;2023-03-19T05:49:54;8.90;99.90
22813;DHT22;11573;51.334;3.244;2023-03-19T05:52:22;8.90;99.90
22813;DHT22;11573;51.334;3.244;2023-03-19T05:54:51;8.90;99.90
22813;DHT22;11573;51.334;3.244;2023-03-19T05:57:35;8.90;99.90
22813;DHT22;11573;51.334;3.244;2023-03-19T06:00:13;9.00;99.90
22813;DHT22;11573;51.334;3.244;2023-03-19T06:02:42;9.00;99.90
22813;DHT22;11573;51.334;3.244;2023-03-19T06:05:29;9.00;99.90
22813;DHT22;11573;51.334;3.244;2023-03-19T06:08:03;9.00;99.90
22813;DHT22;11573;51.334;3.244;2023-03-19T06:10:45;9.10;99.90
22813;DHT22;11573;51.334;3.244;2023-03-19T06:13:13;9.10;99.90
22813;DHT22;11573;51.334;3.244;2023-03-19T06:15:47;9.00;99.90
22813;DHT22;11573;51.334;3.244;2023-03-19T06:18:26;9.10;99.90
22813;DHT22;11573;51.334;3.244;2023-03-19T06:20:53;9.20;99.90
22813;DHT22;11573;51.334;3.244;2023-03-19T06:23:20;9.20;99.90
22813;DHT22;11573;51.334;3.244;2023-03-19T06:25:47;9.20;99.90
22813;DHT22;11573;51.334;3.244;2023-03-19T06:28:16;9.30;99.90
22813;DHT22;11573;51.334;3.244;2023-03-19T06:30:44;9.30;99.90
22813;DHT22;11573;51.334;3.244;2023-03-19T06:33:30;9.30;99.90
22813;DHT22;11573;51.334;3.244;2023-03-19T06:35:59;9.30;99.90
22813;DHT22;11573;51.334;3.244;2023-03-19T06:38:29;9.30;99.90
22813;DHT22;11573;51.334;3.244;2023-03-19T06:40:56;9.40;99.90
22813;DHT22;11573;51.334;3.244;2023-03-19T06:43:23;9.30;99.90
22813;DHT22;11573;51.334;3.244;2023-03-19T06:45:50;9.40;99.90
22813;DHT22;11573;51.334;3.244;2023-03-19T06:48:17;9.40;99.90
22813;DHT22;11573;51.334;3.244;2023-03-19T06:50:45;9.50;99.90
22813;DHT22;11573;51.334;3.244;2023-03-19T06:53:13;9.60;99.90
22813;DHT22;11573;51.334;3.244;2023-03-19T06:55:40;9.70;99.90
22813;DHT22;11573;51.334;3.244;2023-03-19T06:58:07;9.70;99.90
22813;DHT22;11573;51.334;3.244;2023-03-19T07:00:34;9.80;99.90
22813;DHT22;11573;51.334;3.244;2023-03-19T07:03:01;9.80;99.90
22813;DHT22;11573;51.334;3.244;2023-03-19T07:05:28;9.80;99.90
22813;DHT22;11573;51.334;3.244;2023-03-19T07:07:55;9.80;99.90
22813;DHT22;11573;51.334;3.244;2023-03-19T07:10:22;9.80;99.90
22813;DHT22;11573;51.334;3.244;2023-03-19T07:12:49;9.80;99.90
22813;DHT22;11573;51.334;3.244;2023-03-19T07:15:16;9.80;99.90
22813;DHT22;11573;51.334;3.244;2023-03-19T07:17:46;9.80;99.90
22813;DHT22;11573;51.334;3.244;2023-03-19T07:20:14;9.80;99.90
22813;DHT22;11573;51.334;3.244;2023-03-19T07:22:41;9.70;99.90
22813;DHT22;11573;51.334;3.244;2023-03-19T07:25:08;9.70;99.90
22813;DHT22;11573;51.334;3.244;2023-03-19T07:27:35;9.70;99.90
22813;DHT22;11573;51.334;3.244;2023-03-19T07:30:02;9.70;99.90
22813;DHT22;11573;51.334;3.244;2023-03-19T07:32:29;9.70;99.90
22813;DHT22;11573;51.334;3.244;2023-03-19T07:34:57;9.80;99.90
22813;DHT22;11573;51.334;3.244;2023-03-19T07:37:24;9.80;99.90
22813;DHT22;11573;51.334;3.244;2023-03-19T07:39:51;9.70;99.90
22813;DHT22;11573;51.334;3.244;2023-03-19T07:42:18;9.80;99.90
22813;DHT22;11573;51.334;3.244;2023-03-19T07:44:45;9.70;99.90
22813;DHT22;11573;51.334;3.244;2023-03-19T07:47:11;9.60;99.90
22813;DHT22;11573;51.334;3.244;2023-03-19T07:49:54;9.40;99.90
22813;DHT22;11573;51.334;3.244;2023-03-19T07:52:21;9.20;99.90
22813;DHT22;11573;51.334;3.244;2023-03-19T07:54:48;9.10;99.90
22813;DHT22;11573;51.334;3.244;2023-03-19T07:57:16;9.10;99.90
22813;DHT22;11573;51.334;3.244;2023-03-19T07:59:43;9.10;99.90
22813;DHT22;11573;51.334;3.244;2023-03-19T08:02:13;9.10;99.90
22813;DHT22;11573;51.334;3.244;2023-03-19T08:04:40;9.20;99.90
22813;DHT22;11573;51.334;3.244;2023-03-19T08:07:08;9.10;99.90
22813;DHT22;11573;51.334;3.244;2023-03-19T08:09:37;9.20;99.90
22813;DHT22;11573;51.334;3.244;2023-03-19T08:12:05;8.90;99.90
22813;DHT22;11573;51.334;3.244;2023-03-19T08:14:33;9.00;99.90
22813;DHT22;11573;51.334;3.244;2023-03-19T08:17:00;9.00;99.90
22813;DHT22;11573;51.334;3.244;2023-03-19T08:19:27;9.00;99.90
22813;DHT22;11573;51.334;3.244;2023-03-19T08:21:54;9.00;99.90
22813;DHT22;11573;51.334;3.244;2023-03-19T08:24:22;8.90;99.90
22813;DHT22;11573;51.334;3.244;2023-03-19T08:26:49;8.90;99.90
22813;DHT22;11573;51.334;3.244;2023-03-19T08:29:16;8.80;99.90
22813;DHT22;11573;51.334;3.244;2023-03-19T08:31:44;8.80;99.90
22813;DHT22;11573;51.334;3.244;2023-03-19T08:34:12;8.80;99.90
22813;DHT22;11573;51.334;3.244;2023-03-19T08:36:39;8.70;99.90
22813;DHT22;11573;51.334;3.244;2023-03-19T08:39:06;8.80;99.90
22813;DHT22;11573;51.334;3.244;2023-03-19T08:41:33;8.80;99.90
22813;DHT22;11573;51.334;3.244;2023-03-19T08:44:01;8.70;99.90
22813;DHT22;11573;51.334;3.244;2023-03-19T08:46:28;8.70;99.90
22813;DHT22;11573;51.334;3.244;2023-03-19T08:48:55;8.90;99.90
22813;DHT22;11573;51.334;3.244;2023-03-19T08:51:22;8.90;99.90
22813;DHT22;11573;51.334;3.244;2023-03-19T08:53:52;9.10;99.90
22813;DHT22;11573;51.334;3.244;2023-03-19T08:56:19;9.40;99.90
22813;DHT22;11573;51.334;3.244;2023-03-19T08:58:47;9.70;99.90
22813;DHT22;11573;51.334;3.244;2023-03-19T09:01:15;9.80;99.90
22813;DHT22;11573;51.334;3.244;2023-03-19T09:03:42;10.10;99.90
22813;DHT22;11573;51.334;3.244;2023-03-19T09:06:12;10.00;99.90
22813;DHT22;11573;51.334;3.244;2023-03-19T09:08:40;10.00;99.90
22813;DHT22;11573;51.334;3.244;2023-03-19T09:11:08;10.30;99.90
22813;DHT22;11573;51.334;3.244;2023-03-19T09:13:36;10.20;99.90
22813;DHT22;11573;51.334;3.244;2023-03-19T09:16:04;10.30;99.90
22813;DHT22;11573;51.334;3.244;2023-03-19T09:18:32;10.60;99.90
22813;DHT22;11573;51.334;3.244;2023-03-19T09:21:00;10.30;99.90
22813;DHT22;11573;51.334;3.244;2023-03-19T09:23:27;10.40;99.90
22813;DHT22;11573;51.334;3.244;2023-03-19T09:25:54;10.60;99.90
22813;DHT22;11573;51.334;3.244;2023-03-19T09:28:21;10.80;99.90
22813;DHT22;11573;51.334;3.244;2023-03-19T09:30:49;11.00;99.90
22813;DHT22;11573;51.334;3.244;2023-03-19T09:33:18;11.20;99.90
22813;DHT22;11573;51.334;3.244;2023-03-19T09:35:51;11.00;99.90
22813;DHT22;11573;51.334;3.244;2023-03-19T09:38:20;11.00;99.90
22813;DHT22;11573;51.334;3.244;2023-03-19T09:40:53;11.20;99.90
22813;DHT22;11573;51.334;3.244;2023-03-19T09:43:45;11.60;99.90
22813;DHT22;11573;51.334;3.244;2023-03-19T09:46:22;11.60;99.90
22813;DHT22;11573;51.334;3.244;2023-03-19T09:48:55;11.60;99.90
22813;DHT22;11573;51.334;3.244;2023-03-19T09:51:45;11.50;99.90
22813;DHT22;11573;51.334;3.244;2023-03-19T09:54:30;11.40;99.90
22813;DHT22;11573;51.334;3.244;2023-03-19T09:56:58;11.70;99.90
22813;DHT22;11573;51.334;3.244;2023-03-19T09:59:27;11.70;99.90
22813;DHT22;11573;51.334;3.244;2023-03-19T10:15:53;12.30;57.80
22813;DHT22;11573;51.334;3.244;2023-03-19T10:18:22;12.40;57.30
22813;DHT22;11573;51.334;3.244;2023-03-19T10:20:57;12.50;56.40
22813;DHT22;11573;51.334;3.244;2023-03-19T10:26:02;12.10;48.30
22813;DHT22;11573;51.334;3.244;2023-03-19T10:28:30;12.00;51.00
22813;DHT22;11573;51.334;3.244;2023-03-19T10:31:33;11.80;49.10
22813;DHT22;11573;51.334;3.244;2023-03-19T10:37:00;12.00;62.70
22813;DHT22;11573;51.334;3.244;2023-03-19T10:39:34;12.00;59.00
22813;DHT22;11573;51.334;3.244;2023-03-19T10:47:37;11.20;75.60
22813;DHT22;11573;51.334;3.244;2023-03-19T10:50:04;10.90;77.80
22813;DHT22;11573;51.334;3.244;2023-03-19T10:52:34;11.10;79.70
22813;DHT22;11573;51.334;3.244;2023-03-19T10:55:06;11.00;79.10
22813;DHT22;11573;51.334;3.244;2023-03-19T10:57:41;10.70;80.40
22813;DHT22;11573;51.334;3.244;2023-03-19T11:00:18;10.60;94.50
22813;DHT22;11573;51.334;3.244;2023-03-19T11:02:48;10.40;95.30
22813;DHT22;11573;51.334;3.244;2023-03-19T11:05:29;10.20;95.20
22813;DHT22;11573;51.334;3.244;2023-03-19T11:08:01;10.40;99.90
22813;DHT22;11573;51.334;3.244;2023-03-19T11:10:31;10.40;98.50
22813;DHT22;11573;51.334;3.244;2023-03-19T11:13:04;10.30;99.90
22813;DHT22;11573;51.334;3.244;2023-03-19T11:15:36;10.60;99.90
22813;DHT22;11573;51.334;3.244;2023-03-19T11:18:07;10.80;95.00
22813;DHT22;11573;51.334;3.244;2023-03-19T11:20:41;11.00;90.90
22813;DHT22;11573;51.334;3.244;2023-03-19T11:23:15;11.10;89.20
22813;DHT22;11573;51.334;3.244;2023-03-19T11:25:53;11.00;83.00
22813;DHT22;11573;51.334;3.244;2023-03-19T11:28:22;11.00;88.30
22813;DHT22;11573;51.334;3.244;2023-03-19T11:31:20;11.10;83.80
22813;DHT22;11573;51.334;3.244;2023-03-19T11:45:27;11.30;72.00
22813;DHT22;11573;51.334;3.244;2023-03-19T11:51:06;10.90;64.70
22813;DHT22;11573;51.334;3.244;2023-03-19T11:56:31;10.80;75.00
22813;DHT22;11573;51.334;3.244;2023-03-19T12:03:05;10.70;83.60
22813;DHT22;11573;51.334;3.244;2023-03-19T12:07:46;11.20;73.80
22813;DHT22;11573;51.334;3.244;2023-03-19T12:16:19;11.20;80.10
22813;DHT22;11573;51.334;3.244;2023-03-19T12:19:16;11.50;75.60
22813;DHT22;11573;51.334;3.244;2023-03-19T12:25:10;11.40;55.60
22813;DHT22;11573;51.334;3.244;2023-03-19T12:28:08;11.10;53.40
22813;DHT22;11573;51.334;3.244;2023-03-19T12:30:44;10.80;56.90
22813;DHT22;11573;51.334;3.244;2023-03-19T12:34:06;10.90;68.70
22813;DHT22;11573;51.334;3.244;2023-03-19T12:36:40;10.90;66.00
22813;DHT22;11573;51.334;3.244;2023-03-19T12:39:19;10.90;59.10
22813;DHT22;11573;51.334;3.244;2023-03-19T12:41:48;10.60;67.80
22813;DHT22;11573;51.334;3.244;2023-03-19T12:44:36;10.70;69.30
22813;DHT22;11573;51.334;3.244;2023-03-19T12:47:15;10.50;81.80
22813;DHT22;11573;51.334;3.244;2023-03-19T12:50:12;10.20;78.70
22813;DHT22;11573;51.334;3.244;2023-03-19T12:52:49;10.10;89.40
22813;DHT22;11573;51.334;3.244;2023-03-19T12:55:34;10.20;93.10
22813;DHT22;11573;51.334;3.244;2023-03-19T12:58:05;10.10;91.00
22813;DHT22;11573;51.334;3.244;2023-03-19T13:00:47;10.10;97.60
22813;DHT22;11573;51.334;3.244;2023-03-19T13:06:22;9.90;92.50
22813;DHT22;11573;51.334;3.244;2023-03-19T13:09:02;9.80;99.90
22813;DHT22;11573;51.334;3.244;2023-03-19T13:11:42;9.90;99.90
22813;DHT22;11573;51.334;3.244;2023-03-19T13:14:29;9.90;99.90
22813;DHT22;11573;51.334;3.244;2023-03-19T13:19:54;9.90;97.90
22813;DHT22;11573;51.334;3.244;2023-03-19T13:22:29;9.90;99.90
22813;DHT22;11573;51.334;3.244;2023-03-19T13:24:59;10.00;99.90
22813;DHT22;11573;51.334;3.244;2023-03-19T13:27:30;10.10;99.90
22813;DHT22;11573;51.334;3.244;2023-03-19T13:40:44;10.50;99.30
22813;DHT22;11573;51.334;3.244;2023-03-19T14:02:00;10.40;90.80
22813;DHT22;11573;51.334;3.244;2023-03-19T14:04:32;10.40;90.50
22813;DHT22;11573;51.334;3.244;2023-03-19T14:07:17;10.40;84.00
22813;DHT22;11573;51.334;3.244;2023-03-19T14:10:08;10.80;88.70
22813;DHT22;11573;51.334;3.244;2023-03-19T14:12:42;10.90;67.40
22813;DHT22;11573;51.334;3.244;2023-03-19T14:23:29;10.00;91.60
22813;DHT22;11573;51.334;3.244;2023-03-19T14:28:24;9.90;99.90
22813;DHT22;11573;51.334;3.244;2023-03-19T14:30:53;9.90;99.90
22813;DHT22;11573;51.334;3.244;2023-03-19T14:33:26;9.80;99.90
22813;DHT22;11573;51.334;3.244;2023-03-19T14:35:55;9.80;99.90
22813;DHT22;11573;51.334;3.244;2023-03-19T14:38:45;9.80;99.90
22813;DHT22;11573;51.334;3.244;2023-03-19T14:41:16;9.50;99.90
22813;DHT22;11573;51.334;3.244;2023-03-19T14:52:13;10.20;98.50
22813;DHT22;11573;51.334;3.244;2023-03-19T14:55:00;10.40;96.90
22813;DHT22;11573;51.334;3.244;2023-03-19T14:57:33;10.60;95.70
22813;DHT22;11573;51.334;3.244;2023-03-19T15:00:02;10.60;85.70
22813;DHT22;11573;51.334;3.244;2023-03-19T15:02:45;10.50;78.20
22813;DHT22;11573;51.334;3.244;2023-03-19T15:05:24;10.40;70.90
22813;DHT22;11573;51.334;3.244;2023-03-19T15:08:00;10.50;79.40
22813;DHT22;11573;51.334;3.244;2023-03-19T15:11:16;10.30;79.50
22813;DHT22;11573;51.334;3.244;2023-03-19T15:16:20;10.30;90.90
22813;DHT22;11573;51.334;3.244;2023-03-19T15:18:52;10.00;90.10
22813;DHT22;11573;51.334;3.244;2023-03-19T15:21:20;10.20;92.90
22813;DHT22;11573;51.334;3.244;2023-03-19T15:23:47;10.20;87.80
22813;DHT22;11573;51.334;3.244;2023-03-19T15:26:15;10.20;87.70
22813;DHT22;11573;51.334;3.244;2023-03-19T15:28:51;10.10;88.50
22813;DHT22;11573;51.334;3.244;2023-03-19T15:31:19;10.10;92.40
22813;DHT22;11573;51.334;3.244;2023-03-19T15:34:36;10.30;92.20
22813;DHT22;11573;51.334;3.244;2023-03-19T15:37:10;10.20;90.30
22813;DHT22;11573;51.334;3.244;2023-03-19T15:39:47;10.00;94.30
22813;DHT22;11573;51.334;3.244;2023-03-19T15:42:16;10.00;92.90
22813;DHT22;11573;51.334;3.244;2023-03-19T15:45:08;9.90;99.00
22813;DHT22;11573;51.334;3.244;2023-03-19T15:47:51;10.00;99.90
22813;DHT22;11573;51.334;3.244;2023-03-19T15:50:22;9.90;99.90
22813;DHT22;11573;51.334;3.244;2023-03-19T15:52:59;9.80;99.90
22813;DHT22;11573;51.334;3.244;2023-03-19T15:55:28;9.80;99.90
22813;DHT22;11573;51.334;3.244;2023-03-19T15:57:57;9.90;99.50
22813;DHT22;11573;51.334;3.244;2023-03-19T16:00:28;9.90;98.00
22813;DHT22;11573;51.334;3.244;2023-03-19T16:02:55;9.90;96.10
22813;DHT22;11573;51.334;3.244;2023-03-19T16:05:23;9.80;92.00
22813;DHT22;11573;51.334;3.244;2023-03-19T16:08:02;9.60;92.90
22813;DHT22;11573;51.334;3.244;2023-03-19T16:10:41;9.50;99.90
22813;DHT22;11573;51.334;3.244;2023-03-19T16:13:30;9.60;99.90
22813;DHT22;11573;51.334;3.244;2023-03-19T16:16:05;9.60;99.90
22813;DHT22;11573;51.334;3.244;2023-03-19T16:19:00;9.60;99.90
22813;DHT22;11573;51.334;3.244;2023-03-19T16:21:39;9.60;99.90
22813;DHT22;11573;51.334;3.244;2023-03-19T16:26:57;9.50;99.20
22813;DHT22;11573;51.334;3.244;2023-03-19T16:29:36;9.70;99.90
22813;DHT22;11573;51.334;3.244;2023-03-19T16:32:27;9.60;96.70
22813;DHT22;11573;51.334;3.244;2023-03-19T16:35:02;9.60;99.10
22813;DHT22;11573;51.334;3.244;2023-03-19T16:42:43;9.80;98.20
22813;DHT22;11573;51.334;3.244;2023-03-19T16:47:48;9.90;98.80
22813;DHT22;11573;51.334;3.244;2023-03-19T16:50:17;9.70;94.40
22813;DHT22;11573;51.334;3.244;2023-03-19T16:52:46;9.70;93.90
22813;DHT22;11573;51.334;3.244;2023-03-19T16:55:22;9.50;95.70
22813;DHT22;11573;51.334;3.244;2023-03-19T16:58:05;9.70;99.90
22813;DHT22;11573;51.334;3.244;2023-03-19T17:00:33;9.80;99.30
22813;DHT22;11573;51.334;3.244;2023-03-19T17:03:00;10.10;98.00
22813;DHT22;11573;51.334;3.244;2023-03-19T17:05:28;10.10;95.60
22813;DHT22;11573;51.334;3.244;2023-03-19T17:07:55;10.00;92.20
22813;DHT22;11573;51.334;3.244;2023-03-19T17:10:26;9.80;86.50
22813;DHT22;11573;51.334;3.244;2023-03-19T17:12:54;9.60;87.10
22813;DHT22;11573;51.334;3.244;2023-03-19T17:15:26;9.40;88.30
22813;DHT22;11573;51.334;3.244;2023-03-19T17:17:54;9.40;91.90
22813;DHT22;11573;51.334;3.244;2023-03-19T17:20:27;9.30;94.30
22813;DHT22;11573;51.334;3.244;2023-03-19T17:22:55;9.20;95.30
22813;DHT22;11573;51.334;3.244;2023-03-19T17:25:23;9.10;95.20
22813;DHT22;11573;51.334;3.244;2023-03-19T17:27:50;8.90;98.70
22813;DHT22;11573;51.334;3.244;2023-03-19T17:30:17;8.80;99.90
22813;DHT22;11573;51.334;3.244;2023-03-19T17:32:46;8.70;99.90
22813;DHT22;11573;51.334;3.244;2023-03-19T17:35:17;8.70;99.90
22813;DHT22;11573;51.334;3.244;2023-03-19T17:37:46;8.60;99.90
22813;DHT22;11573;51.334;3.244;2023-03-19T17:40:17;8.50;99.90
22813;DHT22;11573;51.334;3.244;2023-03-19T17:42:45;8.40;99.90
22813;DHT22;11573;51.334;3.244;2023-03-19T17:45:16;8.30;99.90
22813;DHT22;11573;51.334;3.244;2023-03-19T17:47:47;8.30;99.90
22813;DHT22;11573;51.334;3.244;2023-03-19T17:50:35;8.30;99.90
22813;DHT22;11573;51.334;3.244;2023-03-19T17:53:02;8.30;99.90
22813;DHT22;11573;51.334;3.244;2023-03-19T17:55:31;8.20;99.90
22813;DHT22;11573;51.334;3.244;2023-03-19T17:57:58;8.10;99.90
22813;DHT22;11573;51.334;3.244;2023-03-19T18:00:25;8.10;99.90
22813;DHT22;11573;51.334;3.244;2023-03-19T18:02:53;8.10;99.90
22813;DHT22;11573;51.334;3.244;2023-03-19T18:05:23;8.00;99.90
22813;DHT22;11573;51.334;3.244;2023-03-19T18:07:54;7.90;99.90
22813;DHT22;11573;51.334;3.244;2023-03-19T18:10:23;7.80;99.90
22813;DHT22;11573;51.334;3.244;2023-03-19T18:12:52;7.70;99.90
22813;DHT22;11573;51.334;3.244;2023-03-19T18:15:20;7.60;99.90
22813;DHT22;11573;51.334;3.244;2023-03-19T18:17:56;7.50;99.90